createdAt,value
2018-01-12T00:01:08.074Z,4.90
2018-01-12T00:03:36.338Z,4.70
2018-01-12T00:06:03.821Z,4.70
2018-01-12T00:08:31.299Z,4.60
2018-01-12T00:10:58.801Z,4.60
2018-01-12T00:13:26.286Z,4.50
2018-01-12T00:15:54.529Z,4.50
2018-01-12T00:18:21.999Z,4.50
2018-01-12T00:20:49.556Z,4.70
2018-01-12T00:23:17.044Z,4.70
2018-01-12T00:25:45.334Z,4.70
2018-01-12T00:28:12.806Z,4.70
2018-01-12T00:30:40.275Z,4.70
2018-01-12T00:33:07.753Z,4.70
2018-01-12T00:35:36.722Z,4.70
2018-01-12T00:38:04.198Z,4.70
2018-01-12T00:40:31.686Z,4.70
2018-01-12T00:42:59.921Z,4.70
2018-01-12T00:45:27.381Z,4.70
2018-01-12T00:47:54.900Z,4.70
2018-01-12T00:50:22.354Z,4.70
2018-01-12T00:52:49.866Z,4.60
2018-01-12T00:55:17.337Z,4.60
2018-01-12T00:57:45.597Z,4.60
2018-01-12T01:00:13.154Z,4.50
2018-01-12T01:02:41.384Z,4.60
2018-01-12T01:05:08.873Z,4.60
2018-01-12T01:07:36.346Z,4.50
2018-01-12T01:10:03.842Z,4.50
2018-01-12T01:12:31.314Z,4.50
2018-01-12T01:14:58.805Z,4.50
2018-01-12T01:17:26.270Z,4.50
2018-01-12T01:19:53.777Z,4.50
2018-01-12T01:22:21.250Z,4.50
2018-01-12T01:24:48.732Z,4.50
2018-01-12T01:27:16.205Z,4.50
2018-01-12T01:29:44.453Z,4.50
2018-01-12T01:32:11.933Z,4.50
2018-01-12T01:34:40.166Z,4.40
2018-01-12T01:37:07.642Z,4.40
2018-01-12T01:39:35.106Z,4.50
2018-01-12T01:42:02.586Z,4.50
2018-01-12T01:44:30.838Z,4.40
2018-01-12T01:46:58.310Z,4.40
2018-01-12T01:49:26.554Z,4.40
2018-01-12T01:51:54.014Z,4.40
2018-01-12T01:54:21.502Z,4.40
2018-01-12T01:56:49.747Z,4.40
2018-01-12T01:59:17.233Z,4.40
2018-01-12T02:01:45.469Z,4.30
2018-01-12T02:04:12.952Z,4.30
2018-01-12T02:06:40.422Z,4.20
2018-01-12T02:09:08.651Z,4.20
2018-01-12T02:11:36.122Z,4.10
2018-01-12T02:14:03.610Z,4.20
2018-01-12T02:16:31.871Z,4.30
2018-01-12T02:18:59.381Z,4.20
2018-01-12T02:21:26.939Z,4.20
2018-01-12T02:23:54.398Z,4.20
2018-01-12T02:26:21.877Z,4.30
2018-01-12T02:28:49.457Z,4.30
2018-01-12T02:31:16.942Z,4.30
2018-01-12T02:33:44.424Z,4.30
2018-01-12T02:36:11.897Z,4.20
2018-01-12T02:38:39.379Z,4.20
2018-01-12T02:41:06.861Z,4.20
2018-01-12T02:43:35.090Z,4.20
2018-01-12T02:46:02.579Z,4.10
2018-01-12T02:48:30.042Z,4.20
2018-01-12T02:50:58.280Z,4.20
2018-01-12T02:53:25.764Z,4.10
2018-01-12T02:55:53.224Z,4.20
2018-01-12T02:58:20.697Z,4.10
2018-01-12T03:00:48.930Z,4.10
2018-01-12T03:03:16.418Z,4.00
2018-01-12T03:05:43.897Z,4.10
2018-01-12T03:08:11.379Z,4.10
2018-01-12T03:10:38.837Z,4.10
2018-01-12T03:13:07.182Z,4.00
2018-01-12T03:15:34.650Z,4.00
2018-01-12T03:18:02.220Z,4.10
2018-01-12T03:20:29.697Z,4.10
2018-01-12T03:22:57.162Z,4.10
2018-01-12T03:25:24.644Z,4.10
2018-01-12T03:27:52.882Z,4.10
2018-01-12T03:30:20.373Z,4.10
2018-01-12T03:32:47.839Z,4.10
2018-01-12T03:35:15.333Z,4.10
2018-01-12T03:37:42.798Z,4.10
2018-01-12T03:40:10.257Z,4.20
2018-01-12T03:42:37.742Z,4.10
2018-01-12T03:45:05.210Z,4.10
2018-01-12T03:47:32.686Z,4.10
2018-01-12T03:50:00.937Z,4.10
2018-01-12T03:52:28.398Z,4.10
2018-01-12T03:54:55.882Z,4.10
2018-01-12T03:57:23.344Z,4.10
2018-01-12T03:59:50.825Z,4.20
2018-01-12T04:02:18.295Z,4.20
2018-01-12T04:04:45.753Z,4.20
2018-01-12T04:07:13.241Z,4.20
2018-01-12T04:09:40.749Z,4.20
2018-01-12T04:12:08.225Z,4.20
2018-01-12T04:14:35.705Z,4.20
2018-01-12T04:17:03.185Z,4.20
2018-01-12T04:19:31.413Z,4.20
2018-01-12T04:21:58.898Z,4.20
2018-01-12T04:24:26.385Z,4.20
2018-01-12T04:26:53.854Z,4.20
2018-01-12T04:29:21.365Z,4.20
2018-01-12T04:31:48.843Z,4.20
2018-01-12T04:34:17.073Z,4.20
2018-01-12T04:36:44.558Z,4.20
2018-01-12T04:39:12.035Z,4.20
2018-01-12T04:41:40.267Z,4.20
2018-01-12T04:44:07.730Z,4.20
2018-01-12T04:46:35.213Z,4.20
2018-01-12T04:49:03.561Z,4.20
2018-01-12T04:51:31.053Z,4.20
2018-01-12T04:53:59.291Z,4.20
2018-01-12T04:56:26.775Z,4.20
2018-01-12T04:58:55.016Z,4.20
2018-01-12T05:01:22.483Z,4.20
2018-01-12T05:03:49.976Z,4.20
2018-01-12T05:06:18.210Z,4.20
2018-01-12T05:08:45.695Z,4.20
2018-01-12T05:11:13.938Z,4.20
2018-01-12T05:13:41.423Z,4.20
2018-01-12T05:16:09.663Z,4.20
2018-01-12T05:18:37.155Z,4.10
2018-01-12T05:21:04.616Z,4.20
2018-01-12T05:23:32.855Z,4.10
2018-01-12T05:26:00.336Z,4.10
2018-01-12T05:28:27.886Z,4.10
2018-01-12T05:30:55.377Z,4.10
2018-01-12T05:33:22.850Z,4.00
2018-01-12T05:35:50.330Z,4.00
2018-01-12T05:38:17.814Z,4.10
2018-01-12T05:40:45.278Z,4.10
2018-01-12T05:43:13.519Z,4.10
2018-01-12T05:45:41.010Z,4.10
2018-01-12T05:48:08.474Z,4.10
2018-01-12T05:50:36.741Z,4.30
2018-01-12T05:53:04.310Z,4.20
2018-01-12T05:55:32.553Z,4.20
2018-01-12T05:58:00.050Z,4.20
2018-01-12T06:00:28.283Z,4.20
2018-01-12T06:03:07.642Z,4.20
2018-01-12T06:05:46.995Z,4.20
2018-01-12T06:08:15.362Z,4.20
2018-01-12T06:10:43.606Z,4.20
2018-01-12T06:13:11.093Z,4.20
2018-01-12T06:15:39.341Z,4.20
2018-01-12T06:18:06.812Z,4.20
2018-01-12T06:20:34.286Z,4.20
2018-01-12T06:23:02.522Z,4.20
2018-01-12T06:25:30.003Z,4.20
2018-01-12T06:27:57.512Z,4.20
2018-01-12T06:30:25.019Z,4.20
2018-01-12T06:32:52.527Z,4.20
2018-01-12T06:35:20.034Z,4.20
2018-01-12T06:37:47.511Z,4.20
2018-01-12T06:40:15.757Z,4.20
2018-01-12T06:42:43.238Z,4.20
2018-01-12T06:45:11.485Z,4.30
2018-01-12T06:47:38.990Z,4.20
2018-01-12T06:50:06.451Z,4.20
2018-01-12T06:52:33.926Z,4.20
2018-01-12T06:55:01.391Z,4.20
2018-01-12T06:57:28.871Z,4.20
2018-01-12T06:59:56.353Z,4.20
2018-01-12T07:02:24.598Z,4.20
2018-01-12T07:04:52.825Z,4.20
2018-01-12T07:07:20.294Z,4.20
2018-01-12T07:09:47.779Z,4.10
2018-01-12T07:12:15.257Z,4.10
2018-01-12T07:14:42.723Z,4.20
2018-01-12T07:17:10.966Z,4.20
2018-01-12T07:19:38.455Z,4.10
2018-01-12T07:22:18.531Z,4.10
2018-01-12T07:24:46.011Z,4.10
2018-01-12T07:27:13.479Z,4.10
2018-01-12T07:29:40.945Z,4.20
2018-01-12T07:32:08.434Z,4.20
2018-01-12T07:34:36.674Z,4.20
2018-01-12T07:37:04.162Z,4.20
2018-01-12T07:39:32.421Z,4.20
2018-01-12T07:41:59.893Z,4.20
2018-01-12T07:44:27.355Z,4.20
2018-01-12T07:46:56.318Z,4.30
2018-01-12T07:49:23.782Z,4.20
2018-01-12T07:51:51.245Z,4.30
2018-01-12T07:54:18.726Z,4.30
2018-01-12T07:56:46.975Z,4.40
2018-01-12T07:59:14.450Z,4.30
2018-01-12T08:01:48.382Z,4.30
2018-01-12T08:04:15.869Z,4.30
2018-01-12T08:06:43.330Z,4.20
2018-01-12T08:09:10.817Z,4.20
2018-01-12T08:11:39.050Z,4.20
2018-01-12T08:14:06.534Z,4.20
2018-01-12T08:16:33.997Z,4.30
2018-01-12T08:19:01.461Z,4.30
2018-01-12T08:21:29.709Z,4.30
2018-01-12T08:23:57.226Z,4.30
2018-01-12T08:26:24.691Z,4.30
2018-01-12T08:28:52.162Z,4.40
2018-01-12T08:31:19.646Z,4.30
2018-01-12T08:33:47.102Z,4.30
2018-01-12T08:36:14.578Z,4.40
2018-01-12T08:38:42.809Z,4.40
2018-01-12T08:41:10.275Z,4.40
2018-01-12T08:43:37.755Z,4.40
2018-01-12T08:46:05.226Z,4.40
2018-01-12T08:48:33.483Z,4.50
2018-01-12T08:51:00.951Z,4.50
2018-01-12T08:53:28.454Z,4.50
2018-01-12T08:55:55.924Z,4.50
2018-01-12T08:58:23.395Z,4.60
2018-01-12T09:00:50.926Z,4.70
2018-01-12T09:03:18.382Z,4.70
2018-01-12T09:05:45.862Z,4.80
2018-01-12T09:08:13.397Z,4.80
2018-01-12T09:10:40.869Z,4.80
2018-01-12T09:13:20.387Z,4.80
2018-01-12T09:15:47.905Z,5.00
2018-01-12T09:18:35.090Z,5.10
2018-01-12T09:21:14.626Z,5.20
2018-01-12T09:23:42.093Z,5.20
2018-01-12T09:26:09.574Z,5.20
2018-01-12T09:28:37.141Z,5.20
2018-01-12T09:31:05.369Z,5.30
2018-01-12T09:33:32.839Z,5.30
2018-01-12T09:36:00.306Z,5.20
2018-01-12T09:41:31.237Z,5.30
2018-01-12T09:43:58.726Z,5.30
2018-01-12T09:46:26.206Z,5.30
2018-01-12T09:48:54.433Z,5.20
2018-01-12T09:51:21.899Z,5.10
2018-01-12T09:53:49.393Z,5.10
2018-01-12T09:56:17.647Z,5.00
2018-01-12T09:58:46.634Z,5.00
2018-01-12T10:01:25.082Z,5.00
2018-01-12T10:03:52.565Z,5.00
2018-01-12T10:06:20.061Z,5.00
2018-01-12T10:08:47.512Z,5.00
2018-01-12T10:11:15.006Z,5.10
2018-01-12T10:13:43.229Z,5.20
2018-01-12T10:16:10.705Z,5.10
2018-01-12T10:18:42.039Z,5.10
2018-01-12T10:21:21.434Z,5.10
2018-01-12T10:23:48.889Z,5.00
2018-01-12T10:26:16.382Z,5.00
2018-01-12T10:28:55.685Z,5.00
2018-01-12T10:31:33.105Z,5.00
2018-01-12T10:34:08.377Z,5.00
2018-01-12T10:36:36.622Z,4.90
2018-01-12T10:39:04.108Z,4.90
2018-01-12T10:41:38.237Z,4.80
2018-01-12T10:44:06.479Z,4.90
2018-01-12T10:46:45.946Z,4.90
2018-01-12T10:49:26.165Z,4.90
2018-01-12T10:52:05.749Z,4.90
2018-01-12T10:54:33.978Z,5.00
2018-01-12T10:57:01.478Z,5.00
2018-01-12T10:59:29.717Z,5.10
2018-01-12T11:01:58.693Z,5.00
2018-01-12T11:04:26.192Z,5.00
2018-01-12T11:06:54.425Z,4.90
2018-01-12T11:09:21.901Z,4.90
2018-01-12T11:11:50.873Z,4.90
2018-01-12T11:14:18.357Z,4.90
2018-01-12T11:16:45.825Z,4.90
2018-01-12T11:19:14.069Z,5.00
2018-01-12T11:21:41.545Z,5.00
2018-01-12T11:24:09.044Z,5.00
2018-01-12T11:26:36.496Z,5.00
2018-01-12T11:29:03.973Z,5.00
2018-01-12T11:31:31.433Z,5.00
2018-01-12T11:33:58.913Z,5.10
2018-01-12T11:36:26.438Z,5.10
2018-01-12T11:38:53.907Z,5.10
2018-01-12T11:41:21.371Z,5.10
2018-01-12T11:43:48.883Z,5.10
2018-01-12T11:46:17.113Z,5.20
2018-01-12T11:48:44.590Z,5.20
2018-01-12T11:51:12.077Z,5.30
2018-01-12T11:53:39.562Z,5.20
2018-01-12T11:56:07.051Z,5.30
2018-01-12T11:58:34.525Z,5.30
2018-01-12T12:01:02.754Z,5.30
2018-01-12T12:03:30.226Z,5.30
2018-01-12T12:05:57.690Z,5.30
2018-01-12T12:08:25.947Z,5.30
2018-01-12T12:10:53.430Z,5.30
2018-01-12T12:13:20.889Z,5.30
2018-01-12T12:15:48.369Z,5.30
2018-01-12T12:18:15.837Z,5.20
2018-01-12T12:20:43.314Z,5.20
2018-01-12T12:23:10.810Z,5.30
2018-01-12T12:25:38.278Z,5.30
2018-01-12T12:28:06.529Z,5.30
2018-01-12T12:30:34.004Z,5.30
2018-01-12T12:33:01.490Z,5.30
2018-01-12T12:35:28.958Z,5.30
2018-01-12T12:37:56.539Z,5.30
2018-01-12T12:40:24.018Z,5.20
2018-01-12T12:42:51.498Z,5.20
2018-01-12T12:45:18.962Z,5.20
2018-01-12T12:47:47.202Z,5.20
2018-01-12T12:50:14.674Z,5.20
2018-01-12T12:52:42.147Z,5.30
2018-01-12T12:55:10.390Z,5.30
2018-01-12T12:57:37.869Z,5.30
2018-01-12T13:00:05.342Z,5.40
2018-01-12T13:02:33.585Z,5.30
2018-01-12T13:05:01.066Z,5.30
2018-01-12T13:07:29.298Z,5.30
2018-01-12T13:09:56.789Z,5.30
2018-01-12T13:12:25.017Z,5.30
2018-01-12T13:14:52.477Z,5.30
2018-01-12T13:17:19.969Z,5.30
2018-01-12T13:19:47.537Z,5.30
2018-01-12T13:22:15.861Z,5.40
2018-01-12T13:24:43.318Z,5.30
2018-01-12T13:27:10.804Z,5.40
2018-01-12T13:29:38.274Z,5.40
2018-01-12T13:32:05.750Z,5.40
2018-01-12T13:34:33.993Z,5.30
2018-01-12T13:37:01.461Z,5.20
2018-01-12T13:39:28.947Z,5.30
2018-01-12T13:41:57.173Z,5.20
2018-01-12T13:44:24.657Z,5.20
2018-01-12T13:46:53.647Z,5.20
2018-01-12T13:49:22.636Z,5.20
2018-01-12T13:51:50.095Z,5.20
2018-01-12T13:54:17.561Z,5.20
2018-01-12T13:56:45.793Z,5.10
2018-01-12T13:59:13.275Z,5.10
2018-01-12T14:01:40.753Z,5.10
2018-01-12T14:04:09.011Z,5.20
2018-01-12T14:06:37.250Z,5.10
2018-01-12T14:09:04.720Z,5.10
2018-01-12T14:11:32.202Z,5.10
2018-01-12T14:14:01.181Z,5.00
2018-01-12T14:16:29.426Z,5.10
2018-01-12T14:18:56.898Z,5.10
2018-01-12T14:21:24.433Z,5.00
2018-01-12T14:23:52.622Z,5.00
2018-01-12T14:26:20.118Z,5.00
2018-01-12T14:28:48.359Z,5.10
2018-01-12T14:31:15.841Z,5.00
2018-01-12T14:33:44.078Z,5.10
2018-01-12T14:36:11.561Z,5.10
2018-01-12T14:38:39.028Z,5.10
2018-01-12T14:41:06.511Z,5.00
2018-01-12T14:43:34.737Z,5.00
2018-01-12T14:46:02.216Z,5.00
2018-01-12T14:48:29.698Z,5.00
2018-01-12T14:50:57.961Z,5.00
2018-01-12T14:53:26.201Z,5.00
2018-01-12T14:58:34.329Z,5.00
2018-01-12T15:01:01.814Z,5.10
2018-01-12T15:03:30.046Z,5.10
2018-01-12T15:05:57.530Z,5.10
2018-01-12T15:08:25.007Z,5.10
2018-01-12T15:10:53.265Z,5.00
2018-01-12T15:13:20.724Z,5.00
2018-01-12T15:15:48.962Z,5.00
2018-01-12T15:18:16.455Z,5.00
2018-01-12T15:20:43.941Z,5.00
2018-01-12T15:23:12.181Z,5.00
2018-01-12T15:25:40.422Z,5.00
2018-01-12T15:28:07.905Z,5.00
2018-01-12T15:30:35.377Z,5.00
2018-01-12T15:33:02.875Z,5.10
2018-01-12T15:35:30.373Z,5.00
2018-01-12T15:37:57.849Z,5.00
2018-01-12T15:40:25.326Z,5.00
2018-01-12T15:42:54.977Z,4.90
2018-01-12T15:45:23.753Z,4.90
2018-01-12T15:47:51.212Z,5.00
2018-01-12T15:50:19.665Z,5.00
2018-01-12T15:52:47.143Z,5.00
2018-01-12T15:55:15.557Z,5.00
2018-01-12T15:57:43.303Z,5.00
2018-01-12T16:00:10.824Z,5.00
2018-01-12T16:02:38.262Z,5.10
2018-01-12T16:05:06.567Z,5.00
2018-01-12T16:07:34.038Z,5.10
2018-01-12T16:10:01.520Z,5.10
2018-01-12T16:12:28.998Z,5.10
2018-01-12T16:14:57.394Z,5.00
2018-01-12T16:17:26.629Z,4.90
2018-01-12T16:19:54.091Z,4.90
2018-01-12T16:22:21.581Z,5.00
2018-01-12T16:24:51.954Z,4.90
2018-01-12T16:27:19.421Z,4.90
2018-01-12T16:29:46.916Z,4.90
2018-01-12T16:32:14.397Z,4.90
2018-01-12T16:34:42.647Z,5.00
2018-01-12T16:37:11.993Z,5.00
2018-01-12T16:39:39.466Z,4.90
2018-01-12T16:42:06.946Z,4.90
2018-01-12T16:44:34.419Z,4.90
2018-01-12T16:47:01.899Z,4.90
2018-01-12T16:49:32.880Z,4.90
2018-01-12T16:52:00.347Z,4.80
2018-01-12T16:54:27.814Z,4.80
2018-01-12T16:56:55.308Z,4.80
2018-01-12T16:59:23.555Z,4.80
2018-01-12T17:01:51.042Z,4.80
2018-01-12T17:04:19.860Z,4.90
2018-01-12T17:06:47.334Z,4.90
2018-01-12T17:09:15.242Z,5.00
2018-01-12T17:11:43.485Z,5.00
2018-01-12T17:14:10.975Z,5.00
2018-01-12T17:16:38.430Z,4.90
2018-01-12T17:19:06.669Z,4.90
2018-01-12T17:21:34.190Z,4.90
2018-01-12T17:24:02.614Z,4.90
2018-01-12T17:26:30.083Z,4.80
2018-01-12T17:28:58.548Z,4.80
2018-01-12T17:31:26.031Z,4.80
2018-01-12T17:33:53.509Z,4.90
2018-01-12T17:36:21.002Z,4.90
2018-01-12T17:38:48.488Z,4.90
2018-01-12T17:41:16.004Z,4.90
2018-01-12T17:43:43.478Z,4.90
2018-01-12T17:46:10.954Z,4.90
2018-01-12T17:48:39.970Z,4.90
2018-01-12T17:51:08.223Z,4.90
2018-01-12T17:53:35.707Z,4.90
2018-01-12T17:56:03.960Z,4.90
2018-01-12T17:58:31.430Z,4.90
2018-01-12T18:00:59.701Z,4.90
2018-01-12T18:03:27.190Z,4.80
2018-01-12T18:05:54.651Z,4.80
2018-01-12T18:08:22.938Z,4.80
2018-01-12T18:10:50.390Z,4.80
2018-01-12T18:13:17.866Z,4.90
2018-01-12T18:15:45.353Z,4.90
2018-01-12T18:18:12.921Z,4.90
2018-01-12T18:20:40.412Z,4.90
2018-01-12T18:23:07.881Z,4.90
2018-01-12T18:25:35.446Z,4.90
2018-01-12T18:28:02.957Z,4.90
2018-01-12T18:30:30.413Z,4.90
2018-01-12T18:32:58.670Z,4.90
2018-01-12T18:35:26.162Z,4.90
2018-01-12T18:37:54.409Z,4.90
2018-01-12T18:40:21.881Z,4.80
2018-01-12T18:42:50.156Z,4.80
2018-01-12T18:45:17.605Z,4.80
2018-01-12T18:47:45.104Z,4.70
2018-01-12T18:50:13.493Z,4.70
2018-01-12T18:52:40.965Z,4.70
2018-01-12T18:55:08.457Z,4.70
2018-01-12T18:57:36.702Z,4.70
2018-01-12T19:00:04.228Z,4.70
2018-01-12T19:02:31.711Z,4.80
2018-01-12T19:04:59.177Z,4.80
2018-01-12T19:07:26.696Z,4.80
2018-01-12T19:09:54.171Z,4.80
2018-01-12T19:12:21.634Z,4.80
2018-01-12T19:14:49.131Z,4.90
2018-01-12T19:17:16.615Z,4.90
2018-01-12T19:19:44.106Z,4.90
2018-01-12T19:22:11.586Z,4.90
2018-01-12T19:24:39.065Z,4.90
2018-01-12T19:27:07.299Z,4.90
2018-01-12T19:29:34.827Z,4.90
2018-01-12T19:32:02.285Z,4.90
2018-01-12T19:34:29.754Z,4.90
2018-01-12T19:36:57.251Z,4.90
2018-01-12T19:39:24.706Z,4.80
2018-01-12T19:41:52.219Z,4.80
2018-01-12T19:44:19.694Z,4.80
2018-01-12T19:46:47.197Z,4.80
2018-01-12T19:49:15.445Z,4.80
2018-01-12T19:51:42.954Z,4.80
2018-01-12T19:54:10.438Z,4.90
2018-01-12T19:56:37.974Z,4.90
2018-01-12T19:59:05.443Z,4.90
2018-01-12T20:01:32.926Z,4.90
2018-01-12T20:04:00.453Z,4.90
2018-01-12T20:06:28.698Z,4.90
2018-01-12T20:08:59.118Z,4.90
2018-01-12T20:11:28.318Z,4.90
2018-01-12T20:13:56.546Z,4.90
2018-01-12T20:16:24.643Z,4.90
2018-01-12T20:18:53.094Z,4.90
2018-01-12T20:21:22.689Z,4.90
2018-01-12T20:23:50.178Z,4.90
2018-01-12T20:26:17.657Z,4.90
2018-01-12T20:28:46.723Z,4.90
2018-01-12T20:31:14.177Z,4.90
2018-01-12T20:33:41.657Z,4.90
2018-01-12T20:36:09.895Z,4.90
2018-01-12T20:38:38.238Z,4.90
2018-01-12T20:41:06.914Z,4.90
2018-01-12T20:43:34.398Z,4.90
2018-01-12T20:46:04.621Z,4.90
2018-01-12T20:48:32.589Z,5.00
2018-01-12T20:51:00.338Z,5.00
2018-01-12T20:53:28.970Z,5.00
2018-01-12T20:55:56.489Z,5.00
2018-01-12T20:58:23.958Z,5.00
2018-01-12T21:00:54.337Z,5.00
2018-01-12T21:03:23.182Z,5.00
2018-01-12T21:05:51.574Z,5.00
2018-01-12T21:08:19.835Z,5.00
2018-01-12T21:10:47.310Z,5.00
2018-01-12T21:13:16.140Z,5.00
2018-01-12T21:15:44.493Z,5.00
2018-01-12T21:18:13.426Z,5.00
2018-01-12T21:20:40.905Z,5.00
2018-01-12T21:23:09.239Z,5.10
2018-01-12T21:25:36.734Z,5.10
2018-01-12T21:28:04.267Z,5.00
2018-01-12T21:30:31.745Z,5.00
2018-01-12T21:32:59.214Z,5.00
2018-01-12T21:35:26.686Z,5.00
2018-01-12T21:37:54.194Z,5.00
2018-01-12T21:40:22.175Z,5.00
2018-01-12T21:42:49.724Z,5.00
2018-01-12T21:45:17.193Z,5.00
2018-01-12T21:47:44.683Z,5.00
2018-01-12T21:50:12.152Z,5.00
2018-01-12T21:52:40.398Z,5.00
2018-01-12T21:55:07.885Z,5.00
2018-01-12T21:57:36.141Z,5.00
2018-01-12T22:00:04.034Z,5.00
2018-01-12T22:02:33.169Z,4.90
2018-01-12T22:05:01.390Z,4.90
2018-01-12T22:07:29.428Z,4.90
2018-01-12T22:09:56.905Z,4.90
2018-01-12T22:12:25.374Z,4.90
2018-01-12T22:14:53.425Z,4.90
2018-01-12T22:17:20.902Z,4.90
2018-01-12T22:19:48.830Z,4.90
2018-01-12T22:22:16.310Z,4.90
2018-01-12T22:24:44.697Z,4.90
2018-01-12T22:27:13.344Z,4.80
2018-01-12T22:29:42.227Z,4.90
2018-01-12T22:32:10.275Z,4.90
2018-01-12T22:34:38.613Z,4.80
2018-01-12T22:37:06.073Z,4.80
2018-01-12T22:39:33.574Z,4.80
2018-01-12T22:42:02.698Z,4.80
2018-01-12T22:44:30.998Z,4.80
2018-01-12T22:46:58.941Z,4.90
2018-01-12T22:49:26.395Z,4.90
2018-01-12T22:51:54.711Z,4.90
2018-01-12T22:54:23.141Z,4.90
2018-01-12T22:56:50.650Z,4.90
2018-01-12T22:59:18.480Z,4.90
2018-01-12T23:01:45.956Z,5.00
2018-01-12T23:04:14.361Z,5.00
2018-01-12T23:06:41.854Z,5.00
2018-01-12T23:09:09.382Z,4.90
2018-01-12T23:11:37.619Z,4.90
2018-01-12T23:14:05.082Z,4.90
2018-01-12T23:16:33.322Z,4.90
2018-01-12T23:19:00.794Z,4.90
2018-01-12T23:21:29.238Z,4.90
2018-01-12T23:23:57.499Z,4.90
2018-01-12T23:26:26.683Z,4.90
2018-01-12T23:28:54.153Z,4.90
2018-01-12T23:31:21.625Z,4.90
2018-01-12T23:33:51.514Z,4.90
2018-01-12T23:36:21.636Z,4.90
2018-01-12T23:38:49.850Z,4.90
2018-01-12T23:41:17.354Z,4.90
2018-01-12T23:43:47.381Z,4.90
2018-01-12T23:46:15.400Z,4.90
2018-01-12T23:48:42.873Z,4.90
2018-01-12T23:51:10.351Z,4.90
2018-01-12T23:53:37.838Z,4.80
2018-01-12T23:56:06.147Z,4.80
2018-01-12T23:58:33.603Z,4.80
